createdAt,value
2018-08-12T00:03:20.226Z,58.90
2018-08-12T00:05:56.245Z,59.60
2018-08-12T00:08:45.288Z,59.80
2018-08-12T00:11:22.364Z,59.90
2018-08-12T00:13:58.627Z,60.10
2018-08-12T00:16:34.367Z,60.20
2018-08-12T00:19:08.891Z,60.40
2018-08-12T00:21:43.299Z,60.50
2018-08-12T00:24:18.042Z,60.40
2018-08-12T00:26:52.497Z,60.40
2018-08-12T00:29:27.073Z,60.60
2018-08-12T00:32:01.442Z,60.40
2018-08-12T00:34:37.477Z,60.20
2018-08-12T00:37:11.828Z,59.90
2018-08-12T00:39:48.127Z,60.70
2018-08-12T00:45:12.564Z,59.80
2018-08-12T00:47:48.626Z,59.80
2018-08-12T00:50:23.037Z,59.90
2018-08-12T00:52:57.641Z,59.90
2018-08-12T00:55:32.142Z,59.90
2018-08-12T00:58:06.904Z,59.80
2018-08-12T01:00:51.076Z,60.00
2018-08-12T01:03:25.577Z,59.90
2018-08-12T01:06:01.500Z,60.00
2018-08-12T01:08:37.279Z,60.00
2018-08-12T01:11:11.711Z,60.10
2018-08-12T01:13:47.776Z,60.30
2018-08-12T01:16:23.776Z,60.30
2018-08-12T01:18:58.374Z,60.20
2018-08-12T01:21:34.451Z,60.20
2018-08-12T01:24:12.866Z,60.50
2018-08-12T01:26:47.573Z,60.60
2018-08-12T01:29:22.400Z,61.00
2018-08-12T01:31:57.688Z,61.20
2018-08-12T01:34:34.139Z,61.20
2018-08-12T01:37:08.798Z,61.20
2018-08-12T01:39:50.964Z,61.10
2018-08-12T01:45:14.087Z,61.20
2018-08-12T01:47:50.131Z,61.20
2018-08-12T01:50:25.104Z,61.20
2018-08-12T01:52:59.919Z,61.30
2018-08-12T01:55:34.391Z,61.30
2018-08-12T01:58:10.774Z,61.40
2018-08-12T02:00:45.342Z,61.50
2018-08-12T02:03:20.149Z,61.60
2018-08-12T02:05:56.531Z,61.70
2018-08-12T02:08:32.120Z,61.80
2018-08-12T02:11:08.430Z,62.00
2018-08-12T02:13:44.800Z,61.90
2018-08-12T02:16:21.067Z,61.80
2018-08-12T02:18:56.974Z,61.80
2018-08-12T02:21:34.980Z,62.20
2018-08-12T02:24:10.072Z,62.20
2018-08-12T02:26:44.672Z,62.30
2018-08-12T02:29:19.547Z,62.40
2018-08-12T02:31:54.002Z,62.40
2018-08-12T02:34:30.855Z,61.90
2018-08-12T02:37:06.760Z,62.20
2018-08-12T02:39:42.490Z,62.30
2018-08-12T02:42:17.786Z,62.40
2018-08-12T02:44:53.678Z,62.50
2018-08-12T02:47:39.000Z,62.90
2018-08-12T02:50:13.445Z,62.80
2018-08-12T02:52:48.133Z,62.90
2018-08-12T02:55:34.181Z,62.80
2018-08-12T02:58:09.557Z,62.90
2018-08-12T03:00:50.477Z,63.10
2018-08-12T03:03:26.263Z,63.40
2018-08-12T03:06:00.839Z,63.60
2018-08-12T03:08:37.439Z,63.70
2018-08-12T03:11:13.831Z,63.60
2018-08-12T03:13:48.316Z,63.70
2018-08-12T03:16:24.007Z,63.80
2018-08-12T03:19:00.016Z,63.90
2018-08-12T03:21:36.044Z,63.90
2018-08-12T03:24:10.607Z,64.00
2018-08-12T03:26:45.213Z,64.00
2018-08-12T03:29:20.109Z,64.10
2018-08-12T03:31:54.926Z,64.20
2018-08-12T03:34:31.210Z,64.50
2018-08-12T03:37:07.429Z,64.60
2018-08-12T03:39:43.736Z,64.80
2018-08-12T03:42:18.099Z,65.00
2018-08-12T03:44:54.380Z,65.20
2018-08-12T03:47:39.358Z,65.30
2018-08-12T03:50:13.663Z,65.40
2018-08-12T03:52:49.273Z,65.60
2018-08-12T03:55:23.997Z,65.70
2018-08-12T03:57:58.324Z,65.80
2018-08-12T04:00:34.091Z,66.00
2018-08-12T04:03:08.578Z,66.00
2018-08-12T04:05:43.412Z,65.90
2018-08-12T04:08:19.178Z,65.90
2018-08-12T04:11:06.088Z,66.00
2018-08-12T04:20:40.537Z,66.40
2018-08-12T04:23:16.238Z,69.00
2018-08-12T04:25:50.555Z,68.90
2018-08-12T04:28:25.089Z,68.30
2018-08-12T04:30:59.719Z,67.80
2018-08-12T04:33:35.971Z,67.50
2018-08-12T04:36:10.383Z,67.50
2018-08-12T04:38:45.848Z,67.40
2018-08-12T04:41:20.371Z,67.30
2018-08-12T04:43:56.638Z,67.40
2018-08-12T04:46:31.123Z,67.50
2018-08-12T04:49:08.264Z,67.20
2018-08-12T04:51:42.904Z,67.10
2018-08-12T04:54:17.263Z,66.90
2018-08-12T04:56:54.848Z,66.60
2018-08-12T04:59:30.899Z,66.50
2018-08-12T05:02:05.627Z,66.30
2018-08-12T05:04:40.066Z,66.40
2018-08-12T05:07:15.948Z,66.30
2018-08-12T05:09:50.398Z,66.10
2018-08-12T05:12:26.051Z,65.70
2018-08-12T05:15:00.570Z,66.30
2018-08-12T05:17:36.775Z,66.20
2018-08-12T05:20:11.173Z,65.80
2018-08-12T05:22:47.035Z,66.00
2018-08-12T05:25:21.455Z,65.60
2018-08-12T05:27:56.292Z,66.10
2018-08-12T05:37:31.174Z,66.00
2018-08-12T05:40:07.462Z,67.30
2018-08-12T05:43:01.749Z,67.20
2018-08-12T05:48:13.443Z,66.40
2018-08-12T05:50:47.847Z,65.80
2018-08-12T05:53:22.247Z,65.40
2018-08-12T05:55:58.142Z,65.10
2018-08-12T05:58:33.762Z,64.30
2018-08-12T06:01:09.342Z,64.80
2018-08-12T06:03:43.940Z,64.10
2018-08-12T06:06:18.435Z,64.70
2018-08-12T06:08:54.271Z,63.40
2018-08-12T06:11:30.062Z,63.30
2018-08-12T06:14:05.171Z,62.90
2018-08-12T06:16:40.919Z,63.00
2018-08-12T06:19:16.531Z,61.00
2018-08-12T06:21:52.268Z,60.70
2018-08-12T06:24:26.782Z,60.50
2018-08-12T06:27:01.216Z,60.40
2018-08-12T06:29:35.693Z,60.70
2018-08-12T07:16:22.675Z,60.50
2018-08-12T07:18:59.460Z,56.70
2018-08-12T20:26:03.379Z,56.10
2018-08-12T20:28:38.473Z,45.90
2018-08-12T20:31:20.569Z,45.90
2018-08-12T20:33:56.759Z,45.90
2018-08-12T20:36:32.808Z,45.90
2018-08-12T20:39:11.833Z,46.10
2018-08-12T20:41:46.379Z,46.10
2018-08-12T20:44:22.401Z,46.10
2018-08-12T20:46:56.875Z,46.10
2018-08-12T20:49:32.592Z,46.10
2018-08-12T20:52:07.325Z,46.00
2018-08-12T20:54:41.857Z,46.00
2018-08-12T20:57:18.102Z,46.00
2018-08-12T20:59:55.733Z,46.00
2018-08-12T21:02:30.024Z,46.00
2018-08-12T21:05:04.611Z,45.80
2018-08-12T21:07:42.220Z,45.60
2018-08-12T21:10:23.828Z,45.70
2018-08-12T21:12:58.185Z,46.10
2018-08-12T21:15:32.591Z,46.20
2018-08-12T21:18:13.415Z,46.30
2018-08-12T21:20:48.043Z,46.10
2018-08-12T21:23:23.951Z,46.20
2018-08-12T21:25:58.601Z,46.30
2018-08-12T21:28:33.369Z,46.40
2018-08-12T21:31:09.219Z,46.40
2018-08-12T21:36:31.024Z,46.40
2018-08-12T21:39:10.160Z,46.60
2018-08-12T21:41:44.500Z,46.70
2018-08-12T21:44:23.349Z,46.70
2018-08-12T21:46:57.861Z,46.70
2018-08-12T21:49:33.630Z,47.00
2018-08-12T21:52:08.174Z,47.00
2018-08-12T21:54:43.818Z,46.90
2018-08-12T21:57:19.442Z,46.90
2018-08-12T21:59:53.991Z,46.90
2018-08-12T22:02:28.347Z,47.10
2018-08-12T22:05:02.940Z,47.20
2018-08-12T22:07:49.665Z,47.10
2018-08-12T22:10:24.277Z,47.20
2018-08-12T22:12:58.752Z,47.30
2018-08-12T22:15:33.211Z,47.50
2018-08-12T22:18:10.821Z,47.70
2018-08-12T22:20:45.286Z,47.70
2018-08-12T22:23:21.462Z,47.90
2018-08-12T22:25:57.332Z,47.90
2018-08-12T22:28:31.796Z,48.10
2018-08-12T22:31:07.408Z,48.20
2018-08-12T22:33:51.084Z,48.40
2018-08-12T22:36:25.466Z,48.60
2018-08-12T22:39:00.971Z,48.70
2018-08-12T22:41:35.456Z,48.90
2018-08-12T22:44:11.437Z,48.90
2018-08-12T22:46:48.372Z,49.00
2018-08-12T22:49:24.226Z,48.90
2018-08-12T22:51:58.648Z,49.10
2018-08-12T22:54:33.128Z,49.20
2018-08-12T22:57:08.514Z,49.40
2018-08-12T22:59:42.972Z,49.50
2018-08-12T23:02:17.320Z,49.60
2018-08-12T23:04:53.333Z,49.80
2018-08-12T23:07:29.175Z,50.40
2018-08-12T23:10:04.436Z,50.60
2018-08-12T23:12:40.589Z,50.70
2018-08-12T23:15:27.568Z,50.40
2018-08-12T23:18:05.100Z,50.40
2018-08-12T23:20:40.036Z,50.50
2018-08-12T23:23:15.875Z,50.60
2018-08-12T23:25:50.471Z,50.60
2018-08-12T23:28:27.788Z,50.60
2018-08-12T23:31:04.023Z,50.90
2018-08-12T23:36:20.483Z,50.90
2018-08-12T23:38:56.736Z,51.20
2018-08-12T23:41:31.060Z,51.20
2018-08-12T23:44:07.508Z,51.20
2018-08-12T23:46:44.719Z,51.40
2018-08-12T23:49:20.445Z,51.80
2018-08-12T23:51:54.778Z,51.80
2018-08-12T23:54:29.151Z,51.80
2018-08-12T23:57:05.081Z,52.10
2018-08-12T23:59:39.502Z,52.30
